ESSB

Stockholm-Bromma Airport

Stockholm, Sweden
TAF ESSB 230830Z 2309/2318 15013KT CAVOK TEMPO 2309/2315 15015G25KT BECMG 2314/2316 4000 RA BKN010 TEMPO 2316/2318 0500 -RA FG VV003
Issued Valid From Valid To
Apr-23 @ 08:30 UTC
(60 minutes ago)
Apr-23 @ 09:00 UTC
(30 minutes ago)
Apr-23 @ 18:00 UTC
(in 8 hours)
Apr-23 @ 09:00 to Apr-23 @ 14:00
TAF ESSB 230830Z 2309/2318 15013KT CAVOK
Wind Visibility Clouds Conditions
150° at 13 knots 10,000+ meters
  • No significant clouds
Temporary Apr-23 @ 09:00 to Apr-23 @ 15:00
TEMPO 2309/2315 15015G25KT
Wind
150° at 15 knots
 Gusting to 25 knots
Becoming Apr-23 @ 14:00 to Apr-23 @ 18:00
BECMG 2314/2316 4000 RA BKN010
Wind Visibility Clouds Conditions
150° at 13 knots 4,007 meters
  • Broken at 1,000' AGL
  • Rain
Temporary Apr-23 @ 16:00 to Apr-23 @ 18:00
TEMPO 2316/2318 0500 -RA FG VV003
Visibility Clouds Conditions
499 meters
  • Vertical visibility at 300' AGL
  • Light Rain
  • Fog
TAF ESSB 230830Z 2309/2318 15013KT CAVOK TEMPO 2309/2315 15015G25KT BECMG 2314/2316 4000 RA BKN010 TEMPO 2316/2318 0500 -RA FG VV003
Issued Apr-23 @ 08:30 UTC
(60 minutes ago)
Valid From Apr-23 @ 09:00 UTC
(30 minutes ago)
Valid To Apr-23 @ 18:00 UTC
(in 8 hours)
Apr-23 @ 09:00 - Apr-23 @ 14:00
Wind Visibility
150° at 13 knots 10,000+ meters
Clouds
  • No significant clouds
Conditions
Temporary Apr-23 @ 09:00 - Apr-23 @ 15:00
Wind
150° at 15 knots
 Gusting to 25 knots
Becoming Apr-23 @ 14:00 - Apr-23 @ 18:00
Wind Visibility
150° at 13 knots 4,007 meters
Clouds
  • Broken at 1,000' AGL
Conditions
  • Rain
Temporary Apr-23 @ 16:00 - Apr-23 @ 18:00
Clouds
  • Vertical visibility at 300' AGL
Conditions
  • Light Rain
  • Fog